sensor_id;sensor_type;location;lat;lon;timestamp;pressure;altitude;pressure_sealevel;temperature;humidity
61018;BME280;48171;51.550;5.434;2023-01-10T17:20:58;101173.66;;;5.29;100.00
61018;BME280;48171;51.550;5.434;2023-01-10T17:23:25;101157.91;;;5.26;100.00
61018;BME280;48171;51.550;5.434;2023-01-10T17:25:59;101168.47;;;5.30;100.00
61018;BME280;48171;51.550;5.434;2023-01-10T17:28:24;101158.09;;;5.36;100.00
61018;BME280;48171;51.550;5.434;2023-01-10T17:30:50;101143.19;;;5.32;100.00
61018;BME280;48171;51.550;5.434;2023-01-10T17:33:15;101161.72;;;5.43;100.00
61018;BME280;48171;51.550;5.434;2023-01-10T17:35:42;101144.28;;;5.45;100.00
61018;BME280;48171;51.550;5.434;2023-01-10T17:38:13;101137.31;;;5.47;100.00
61018;BME280;48171;51.550;5.434;2023-01-10T17:40:43;101137.44;;;5.53;100.00
61018;BME280;48171;51.550;5.434;2023-01-10T17:43:09;101129.53;;;5.50;100.00
61018;BME280;48171;51.550;5.434;2023-01-10T17:45:38;101116.50;;;5.55;100.00
61018;BME280;48171;51.550;5.434;2023-01-10T17:48:05;101128.78;;;5.56;100.00
61018;BME280;48171;51.550;5.434;2023-01-10T17:50:30;101110.50;;;5.60;100.00
61018;BME280;48171;51.550;5.434;2023-01-10T17:52:56;101128.13;;;5.68;100.00
61018;BME280;48171;51.550;5.434;2023-01-10T17:55:21;101116.78;;;5.70;100.00
61018;BME280;48171;51.550;5.434;2023-01-10T17:57:46;101131.69;;;5.73;100.00
61018;BME280;48171;51.550;5.434;2023-01-10T18:00:12;101097.56;;;5.71;100.00
61018;BME280;48171;51.550;5.434;2023-01-10T18:02:37;101100.25;;;5.74;100.00
61018;BME280;48171;51.550;5.434;2023-01-10T18:05:03;101097.66;;;5.77;100.00
61018;BME280;48171;51.550;5.434;2023-01-10T18:07:28;101096.00;;;5.81;100.00
61018;BME280;48171;51.550;5.434;2023-01-10T18:09:54;101082.94;;;5.84;100.00
61018;BME280;48171;51.550;5.434;2023-01-10T18:12:21;101085.59;;;5.87;100.00
61018;BME280;48171;51.550;5.434;2023-01-10T18:14:47;101089.16;;;5.91;100.00
61018;BME280;48171;51.550;5.434;2023-01-10T18:17:13;101081.34;;;5.94;100.00
61018;BME280;48171;51.550;5.434;2023-01-10T18:19:40;101090.16;;;5.96;100.00
61018;BME280;48171;51.550;5.434;2023-01-10T18:22:05;101061.25;;;5.94;100.00
61018;BME280;48171;51.550;5.434;2023-01-10T18:24:52;101069.22;;;5.99;100.00
61018;BME280;48171;51.550;5.434;2023-01-10T18:27:19;101053.44;;;5.97;100.00
61018;BME280;48171;51.550;5.434;2023-01-10T18:29:45;101055.31;;;6.05;100.00
61018;BME280;48171;51.550;5.434;2023-01-10T18:32:10;101055.34;;;6.08;100.00
61018;BME280;48171;51.550;5.434;2023-01-10T18:34:35;101049.28;;;6.10;100.00
61018;BME280;48171;51.550;5.434;2023-01-10T18:37:01;101054.56;;;6.13;100.00
61018;BME280;48171;51.550;5.434;2023-01-10T18:39:26;101048.47;;;6.14;100.00
61018;BME280;48171;51.550;5.434;2023-01-10T18:41:51;101025.69;;;6.13;100.00
61018;BME280;48171;51.550;5.434;2023-01-10T18:44:16;101036.22;;;6.15;100.00
61018;BME280;48171;51.550;5.434;2023-01-10T18:46:42;101029.28;;;6.20;100.00
61018;BME280;48171;51.550;5.434;2023-01-10T18:49:07;101031.13;;;6.24;100.00
61018;BME280;48171;51.550;5.434;2023-01-10T18:51:32;101021.53;;;6.26;100.00
61018;BME280;48171;51.550;5.434;2023-01-10T18:53:57;101015.28;;;6.19;100.00
61018;BME280;48171;51.550;5.434;2023-01-10T18:56:23;101012.78;;;6.27;100.00
61018;BME280;48171;51.550;5.434;2023-01-10T18:58:48;101009.31;;;6.28;100.00
61018;BME280;48171;51.550;5.434;2023-01-10T19:01:19;101029.53;;;6.37;100.00
61018;BME280;48171;51.550;5.434;2023-01-10T19:03:45;101025.13;;;6.36;100.00
61018;BME280;48171;51.550;5.434;2023-01-10T19:06:13;101006.72;;;6.33;100.00
61018;BME280;48171;51.550;5.434;2023-01-10T19:08:50;100974.13;;;6.15;100.00
61018;BME280;48171;51.550;5.434;2023-01-10T19:11:24;100987.31;;;6.20;100.00
61018;BME280;48171;51.550;5.434;2023-01-10T19:13:52;100974.16;;;6.17;100.00
61018;BME280;48171;51.550;5.434;2023-01-10T19:16:28;100989.13;;;6.23;100.00
61018;BME280;48171;51.550;5.434;2023-01-10T19:18:58;101007.75;;;6.43;100.00
61018;BME280;48171;51.550;5.434;2023-01-10T19:21:25;100985.69;;;6.28;100.00
61018;BME280;48171;51.550;5.434;2023-01-10T19:23:52;101005.09;;;6.41;100.00
61018;BME280;48171;51.550;5.434;2023-01-10T19:26:20;100997.25;;;6.46;100.00
61018;BME280;48171;51.550;5.434;2023-01-10T19:28:45;100988.47;;;6.40;100.00
61018;BME280;48171;51.550;5.434;2023-01-10T19:31:19;100994.69;;;6.49;100.00
61018;BME280;48171;51.550;5.434;2023-01-10T19:33:45;100989.44;;;6.49;100.00
61018;BME280;48171;51.550;5.434;2023-01-10T19:36:13;100981.56;;;6.49;100.00
61018;BME280;48171;51.550;5.434;2023-01-10T19:38:39;100994.78;;;6.58;100.00
61018;BME280;48171;51.550;5.434;2023-01-10T19:41:04;100984.22;;;6.53;100.00
61018;BME280;48171;51.550;5.434;2023-01-10T19:43:30;100990.47;;;6.63;100.00
61018;BME280;48171;51.550;5.434;2023-01-10T19:45:56;100978.19;;;6.59;100.00
61018;BME280;48171;51.550;5.434;2023-01-10T19:48:21;100980.88;;;6.65;100.00
61018;BME280;48171;51.550;5.434;2023-01-10T19:50:49;100975.56;;;6.62;100.00
61018;BME280;48171;51.550;5.434;2023-01-10T19:53:15;100980.03;;;6.69;100.00
61018;BME280;48171;51.550;5.434;2023-01-10T19:55:40;100968.72;;;6.73;100.00
61018;BME280;48171;51.550;5.434;2023-01-10T19:58:06;100959.09;;;6.75;100.00
61018;BME280;48171;51.550;5.434;2023-01-10T20:00:31;100981.91;;;6.82;100.00
61018;BME280;48171;51.550;5.434;2023-01-10T20:02:58;100981.91;;;6.82;100.00
61018;BME280;48171;51.550;5.434;2023-01-10T20:05:24;100974.97;;;6.88;100.00
61018;BME280;48171;51.550;5.434;2023-01-10T20:07:50;100945.22;;;6.87;100.00
61018;BME280;48171;51.550;5.434;2023-01-10T20:10:16;100951.31;;;6.86;100.00
61018;BME280;48171;51.550;5.434;2023-01-10T20:12:42;100954.00;;;6.92;100.00
61018;BME280;48171;51.550;5.434;2023-01-10T20:15:07;100960.19;;;6.97;100.00
61018;BME280;48171;51.550;5.434;2023-01-10T20:17:36;100950.53;;;6.96;100.00
61018;BME280;48171;51.550;5.434;2023-01-10T20:20:03;100949.69;;;6.97;100.00
61018;BME280;48171;51.550;5.434;2023-01-10T20:22:29;100951.47;;;7.01;100.00
61018;BME280;48171;51.550;5.434;2023-01-10T20:24:54;100945.38;;;7.04;100.00
61018;BME280;48171;51.550;5.434;2023-01-10T20:27:21;100949.81;;;7.10;100.00
61018;BME280;48171;51.550;5.434;2023-01-10T20:29:47;100932.28;;;7.07;100.00
61018;BME280;48171;51.550;5.434;2023-01-10T20:32:12;100937.56;;;7.12;100.00
61018;BME280;48171;51.550;5.434;2023-01-10T20:34:39;100932.31;;;7.13;100.00
61018;BME280;48171;51.550;5.434;2023-01-10T20:37:05;100934.03;;;7.13;100.00
61018;BME280;48171;51.550;5.434;2023-01-10T20:39:30;100932.38;;;7.19;100.00
61018;BME280;48171;51.550;5.434;2023-01-10T20:41:57;100928.81;;;7.14;100.00
61018;BME280;48171;51.550;5.434;2023-01-10T20:44:23;100932.34;;;7.21;100.00
61018;BME280;48171;51.550;5.434;2023-01-10T20:46:50;100917.44;;;7.17;100.00
61018;BME280;48171;51.550;5.434;2023-01-10T20:49:16;100916.53;;;7.15;100.00
61018;BME280;48171;51.550;5.434;2023-01-10T20:51:42;100913.06;;;7.14;100.00
61018;BME280;48171;51.550;5.434;2023-01-10T20:54:09;100905.22;;;7.20;100.00
61018;BME280;48171;51.550;5.434;2023-01-10T20:56:36;100923.59;;;7.20;100.00
61018;BME280;48171;51.550;5.434;2023-01-10T20:59:02;100911.34;;;7.18;100.00
61018;BME280;48171;51.550;5.434;2023-01-10T21:01:28;100913.97;;;7.19;100.00
61018;BME280;48171;51.550;5.434;2023-01-10T21:03:54;100898.19;;;7.18;100.00
61018;BME280;48171;51.550;5.434;2023-01-10T21:06:19;100892.97;;;7.22;100.00
61018;BME280;48171;51.550;5.434;2023-01-10T21:08:46;100895.59;;;7.22;100.00
61018;BME280;48171;51.550;5.434;2023-01-10T21:11:12;100900.00;;;7.24;100.00
61018;BME280;48171;51.550;5.434;2023-01-10T21:13:38;100907.03;;;7.28;100.00
61018;BME280;48171;51.550;5.434;2023-01-10T21:16:05;100895.66;;;7.27;100.00
61018;BME280;48171;51.550;5.434;2023-01-10T21:18:33;100890.41;;;7.30;100.00
61018;BME280;48171;51.550;5.434;2023-01-10T21:20:59;100886.03;;;7.29;100.00
61018;BME280;48171;51.550;5.434;2023-01-10T21:23:25;100865.84;;;7.27;100.00
61018;BME280;48171;51.550;5.434;2023-01-10T21:25:52;100873.78;;;7.31;100.00
61018;BME280;48171;51.550;5.434;2023-01-10T21:28:19;100867.66;;;7.37;100.00
61018;BME280;48171;51.550;5.434;2023-01-10T21:30:45;100851.84;;;7.31;100.00
61018;BME280;48171;51.550;5.434;2023-01-10T21:33:11;100867.69;;;7.40;100.00
61018;BME280;48171;51.550;5.434;2023-01-10T21:35:37;100844.84;;;7.33;100.00
61018;BME280;48171;51.550;5.434;2023-01-10T21:38:03;100847.56;;;7.42;100.00
61018;BME280;48171;51.550;5.434;2023-01-10T21:40:29;100849.28;;;7.43;100.00
61018;BME280;48171;51.550;5.434;2023-01-10T21:42:56;100857.22;;;7.48;100.00
61018;BME280;48171;51.550;5.434;2023-01-10T21:45:24;100844.94;;;7.47;100.00
61018;BME280;48171;51.550;5.434;2023-01-10T21:47:49;100830.03;;;7.44;100.00
61018;BME280;48171;51.550;5.434;2023-01-10T21:50:17;100830.94;;;7.46;100.00
61018;BME280;48171;51.550;5.434;2023-01-10T21:52:43;100831.78;;;7.44;100.00
61018;BME280;48171;51.550;5.434;2023-01-10T21:55:10;100847.59;;;7.53;100.00
61018;BME280;48171;51.550;5.434;2023-01-10T21:57:37;100837.09;;;7.53;100.00
61018;BME280;48171;51.550;5.434;2023-01-10T22:00:02;100842.41;;;7.62;100.00
61018;BME280;48171;51.550;5.434;2023-01-10T22:02:28;100835.41;;;7.64;100.00
61018;BME280;48171;51.550;5.434;2023-01-10T22:04:55;100830.13;;;7.64;100.00
61018;BME280;48171;51.550;5.434;2023-01-10T22:07:22;100823.16;;;7.68;100.00
61018;BME280;48171;51.550;5.434;2023-01-10T22:09:51;100818.75;;;7.71;100.00
61018;BME280;48171;51.550;5.434;2023-01-10T22:12:18;100824.03;;;7.77;100.00
61018;BME280;48171;51.550;5.434;2023-01-10T22:14:47;100818.81;;;7.80;100.00
61018;BME280;48171;51.550;5.434;2023-01-10T22:17:13;100816.19;;;7.82;100.00
61018;BME280;48171;51.550;5.434;2023-01-10T22:19:39;100814.44;;;7.86;100.00
61018;BME280;48171;51.550;5.434;2023-01-10T22:22:05;100813.59;;;7.88;100.00
61018;BME280;48171;51.550;5.434;2023-01-10T22:24:30;100794.25;;;7.83;100.00
61018;BME280;48171;51.550;5.434;2023-01-10T22:26:56;100806.56;;;7.90;100.00
61018;BME280;48171;51.550;5.434;2023-01-10T22:29:22;100789.88;;;7.84;100.00
61018;BME280;48171;51.550;5.434;2023-01-10T22:31:48;100794.28;;;7.89;100.00
61018;BME280;48171;51.550;5.434;2023-01-10T22:34:14;100785.53;;;7.92;100.00
61018;BME280;48171;51.550;5.434;2023-01-10T22:36:40;100783.78;;;7.94;100.00
61018;BME280;48171;51.550;5.434;2023-01-10T22:39:06;100787.31;;;7.99;100.00
61018;BME280;48171;51.550;5.434;2023-01-10T22:41:32;100785.56;;;8.02;100.00
61018;BME280;48171;51.550;5.434;2023-01-10T22:43:57;100791.72;;;8.06;100.00
61018;BME280;48171;51.550;5.434;2023-01-10T22:46:23;100780.28;;;8.06;100.00
61018;BME280;48171;51.550;5.434;2023-01-10T22:48:48;100774.16;;;8.10;100.00
61018;BME280;48171;51.550;5.434;2023-01-10T22:51:16;100775.06;;;8.10;100.00
61018;BME280;48171;51.550;5.434;2023-01-10T22:53:42;100774.16;;;8.11;100.00
61018;BME280;48171;51.550;5.434;2023-01-10T22:56:12;100790.88;;;8.16;100.00
61018;BME280;48171;51.550;5.434;2023-01-10T22:58:37;100782.94;;;8.19;100.00
61018;BME280;48171;51.550;5.434;2023-01-10T23:01:03;100772.44;;;8.15;100.00
61018;BME280;48171;51.550;5.434;2023-01-10T23:03:29;100782.97;;;8.21;100.00
61018;BME280;48171;51.550;5.434;2023-01-10T23:05:55;100771.56;;;8.20;100.00
61018;BME280;48171;51.550;5.434;2023-01-10T23:08:24;100767.16;;;8.19;100.00
61018;BME280;48171;51.550;5.434;2023-01-10T23:10:50;100760.16;;;8.25;100.00
61018;BME280;48171;51.550;5.434;2023-01-10T23:13:15;100739.97;;;8.16;100.00
61018;BME280;48171;51.550;5.434;2023-01-10T23:15:41;100739.06;;;8.14;100.00
61018;BME280;48171;51.550;5.434;2023-01-10T23:18:06;100745.25;;;8.20;100.00
61018;BME280;48171;51.550;5.434;2023-01-10T23:20:32;100743.50;;;8.21;100.00
61018;BME280;48171;51.550;5.434;2023-01-10T23:22:57;100748.75;;;8.26;100.00
61018;BME280;48171;51.550;5.434;2023-01-10T23:25:23;100749.66;;;8.26;100.00
61018;BME280;48171;51.550;5.434;2023-01-10T23:27:48;100740.84;;;8.26;100.00
61018;BME280;48171;51.550;5.434;2023-01-10T23:30:14;100740.84;;;8.33;100.00
61018;BME280;48171;51.550;5.434;2023-01-10T23:32:39;100742.59;;;8.36;100.00
61018;BME280;48171;51.550;5.434;2023-01-10T23:35:05;100726.84;;;8.34;100.00
61018;BME280;48171;51.550;5.434;2023-01-10T23:37:30;100732.09;;;8.37;100.00
61018;BME280;48171;51.550;5.434;2023-01-10T23:39:55;100728.59;;;8.41;100.00
61018;BME280;48171;51.550;5.434;2023-01-10T23:42:21;100734.75;;;8.48;100.00
61018;BME280;48171;51.550;5.434;2023-01-10T23:44:46;100732.13;;;8.51;100.00
61018;BME280;48171;51.550;5.434;2023-01-10T23:47:11;100711.94;;;8.46;100.00
61018;BME280;48171;51.550;5.434;2023-01-10T23:49:37;100716.31;;;8.48;100.00
61018;BME280;48171;51.550;5.434;2023-01-10T23:52:02;100719.84;;;8.55;100.00
61018;BME280;48171;51.550;5.434;2023-01-10T23:54:28;100713.69;;;8.57;100.00
61018;BME280;48171;51.550;5.434;2023-01-10T23:56:53;100711.91;;;8.58;100.00
61018;BME280;48171;51.550;5.434;2023-01-10T23:59:19;100708.44;;;8.54;100.00
